Terminal Aerodrome Forecast
Issued by NWS

Home | Current Version | Previous Version | Text Only | Print | Product List | Glossary On
Versions: 1 2 3 4 5 6 7 8 9 10 11 12 13 14 15 16
000
FTUS43 KMQT 281747
TAFSAW
TAF
KSAW 281747Z 2818/2918 18015KT P6SM VCSH OVC060
     FM282100 17009KT 6SM -SHRA OVC030
     FM282300 17009KT 5SM -SHRA VCTS OVC020CB
     FM290200 17008KT 5SM -SHRA OVC015
     FM290500 19006KT 2SM BR VCSH OVC008
     FM290800 21005KT 1 1/2SM BR VCSH OVC008
     FM291200 24007KT 5SM BR OVC010
     FM291500 26008KT P6SM OVC015=

USA.gov is the U.S. government's official web portal to all federal, state and local government web resources and services.